Valparaiso, FL

12:29 PM CST on February 11, 2016 (GMT -0600)
Eglin Air Force Base | | Change Station
CLOSE
Current Station
Airport
Location: Valparaiso,
Elevation: 85 ft
Nearby Weather Stations

Elev 85 ft 30.48 °N, 86.53 °W | Updated 34 minutes ago

Partly Cloudy
Partly Cloudy
66 °F
Feels Like 66 °F
N
20
Wind Variable Wind from SW
Gusts 26 mph

Today
High -- | Low -- °F
--% Chance of Precip.
Yesterday
High -- | Low -- °F
Precip. -- in
Pressure 30.19 in
Visibility 10.0 miles
Clouds Few 1000 ft
Dew Point 48 °F
Humidity 53%
Rainfall 0.00 in
Snow Depth Not available.
6:30 AM 5:30 PM
Waxing Crescent, 13% visible
METAR KVPS 111755Z 22017G23KT 10SM FEW010 19/09 A3019 RMK AO2A FU FEW010 SLP230 FU NW-NE T01870089 10187 20008 57019 $
Pressure 30.19 in
Visibility 10.0 miles
Clouds Few 1000 ft
Dew Point 48 °F
Humidity 53%
Rainfall 0.00 in
Snow Depth Not available.
6:30 AM 5:30 PM
Waxing Crescent, 13% visible
METAR KVPS 111755Z 22017G23KT 10SM FEW010 19/09 A3019 RMK AO2A FU FEW010 SLP230 FU NW-NE T01870089 10187 20008 57019 $

10-Day Weather Forecast

Almanac

Astronomy

Feb. 11, 2016 Rise Set
Actual Time
Civil Twilight
Nautical Twilight
Astronomical Twilight
Moon
Length of Visible Light
Length of Day
Tomorrow will be .
, % of the Moon is Illuminated

Today's Extremes

State Highs State Lows

Community

WunderPhotos

Upload Photos

1,892,122 photos uploaded!

WunderBlog® & News

Nearby

Air Quality

  Air Quality AQ Index Pollutant
Not available.

Snow Depth

Station Depth Elevation

Earthquake Activity

City Distance Mag. Time & Date
Minimum magnitude displayed is 2.5.

Coastal Water Temperatures

Place Temperature

Stations

Nearby Weather Stations

Station Location Temp. Windchill Dew Point Humidity Wind Precip. Elev Updated Type
                   

Watches & Warnings

There are currently no watches in effect.